sensor_id;sensor_type;location;lat;lon;timestamp;pressure;altitude;pressure_sealevel;temperature;humidity
38022;BME280;23832;43.216;27.946;2023-05-14T00:00:56;101564.47;;;16.23;64.71
38022;BME280;23832;43.216;27.946;2023-05-14T00:02:58;101557.38;;;15.79;66.24
38022;BME280;23832;43.216;27.946;2023-05-14T00:05:00;101556.09;;;15.75;67.71
38022;BME280;23832;43.216;27.946;2023-05-14T00:07:04;101557.75;;;15.91;66.84
38022;BME280;23832;43.216;27.946;2023-05-14T00:09:06;101562.31;;;15.97;66.42
38022;BME280;23832;43.216;27.946;2023-05-14T00:11:08;101559.28;;;16.00;66.14
38022;BME280;23832;43.216;27.946;2023-05-14T00:13:09;101558.91;;;16.03;65.51
38022;BME280;23832;43.216;27.946;2023-05-14T00:15:14;101562.94;;;15.99;66.26
38022;BME280;23832;43.216;27.946;2023-05-14T00:17:17;101557.00;;;15.97;66.68
38022;BME280;23832;43.216;27.946;2023-05-14T00:19:19;101566.59;;;15.98;66.82
38022;BME280;23832;43.216;27.946;2023-05-14T00:21:21;101569.47;;;15.96;67.06
38022;BME280;23832;43.216;27.946;2023-05-14T00:23:23;101579.19;;;16.04;66.71
38022;BME280;23832;43.216;27.946;2023-05-14T00:25:25;101570.38;;;16.03;66.92
38022;BME280;23832;43.216;27.946;2023-05-14T00:27:27;101571.84;;;16.06;66.32
38022;BME280;23832;43.216;27.946;2023-05-14T00:29:29;101572.84;;;16.05;66.18
38022;BME280;23832;43.216;27.946;2023-05-14T00:31:31;101577.16;;;16.06;65.92
38022;BME280;23832;43.216;27.946;2023-05-14T00:33:35;101576.78;;;16.09;65.59
38022;BME280;23832;43.216;27.946;2023-05-14T00:35:37;101581.66;;;16.05;64.44
38022;BME280;23832;43.216;27.946;2023-05-14T00:37:39;101582.75;;;16.11;63.47
38022;BME280;23832;43.216;27.946;2023-05-14T00:39:41;101585.41;;;16.11;62.67
38022;BME280;23832;43.216;27.946;2023-05-14T00:41:45;101578.75;;;16.00;62.30
38022;BME280;23832;43.216;27.946;2023-05-14T00:43:47;101584.78;;;15.79;62.48
38022;BME280;23832;43.216;27.946;2023-05-14T00:45:50;101578.75;;;15.85;61.64
38022;BME280;23832;43.216;27.946;2023-05-14T00:47:52;101576.53;;;15.89;61.39
38022;BME280;23832;43.216;27.946;2023-05-14T00:49:56;101576.06;;;16.00;61.30
38022;BME280;23832;43.216;27.946;2023-05-14T00:52:03;101574.97;;;16.09;60.54
38022;BME280;23832;43.216;27.946;2023-05-14T00:54:05;101579.19;;;16.04;59.98
38022;BME280;23832;43.216;27.946;2023-05-14T00:56:08;101578.34;;;16.03;60.32
38022;BME280;23832;43.216;27.946;2023-05-14T00:58:10;101579.56;;;16.01;60.11
38022;BME280;23832;43.216;27.946;2023-05-14T01:00:13;101582.41;;;15.70;60.96
38022;BME280;23832;43.216;27.946;2023-05-14T01:02:14;101577.44;;;15.81;60.87
38022;BME280;23832;43.216;27.946;2023-05-14T01:04:17;101585.06;;;15.84;60.50
38022;BME280;23832;43.216;27.946;2023-05-14T01:06:25;101583.25;;;15.85;60.28
38022;BME280;23832;43.216;27.946;2023-05-14T01:08:31;101581.19;;;15.72;60.03
38022;BME280;23832;43.216;27.946;2023-05-14T01:10:37;101577.84;;;15.64;61.07
38022;BME280;23832;43.216;27.946;2023-05-14T01:12:45;101572.06;;;15.75;61.00
38022;BME280;23832;43.216;27.946;2023-05-14T01:14:51;101567.91;;;15.72;60.78
38022;BME280;23832;43.216;27.946;2023-05-14T01:16:55;101576.16;;;15.77;60.60
38022;BME280;23832;43.216;27.946;2023-05-14T01:18:58;101566.09;;;15.73;60.91
38022;BME280;23832;43.216;27.946;2023-05-14T01:21:01;101561.03;;;15.78;60.66
38022;BME280;23832;43.216;27.946;2023-05-14T01:23:05;101557.84;;;15.82;60.29
38022;BME280;23832;43.216;27.946;2023-05-14T01:25:07;101560.59;;;15.74;60.66
38022;BME280;23832;43.216;27.946;2023-05-14T01:27:10;101562.16;;;15.69;60.97
38022;BME280;23832;43.216;27.946;2023-05-14T01:29:18;101560.19;;;15.48;62.00
38022;BME280;23832;43.216;27.946;2023-05-14T01:31:22;101563.47;;;15.35;62.09
38022;BME280;23832;43.216;27.946;2023-05-14T01:33:28;101571.69;;;15.25;62.76
38022;BME280;23832;43.216;27.946;2023-05-14T01:35:31;101566.13;;;15.35;62.22
38022;BME280;23832;43.216;27.946;2023-05-14T01:37:34;101570.34;;;15.44;61.15
38022;BME280;23832;43.216;27.946;2023-05-14T01:39:39;101571.09;;;15.53;60.72
38022;BME280;23832;43.216;27.946;2023-05-14T01:41:41;101572.34;;;15.65;59.98
38022;BME280;23832;43.216;27.946;2023-05-14T01:43:44;101576.84;;;15.65;59.78
38022;BME280;23832;43.216;27.946;2023-05-14T01:45:46;101573.78;;;15.68;59.84
38022;BME280;23832;43.216;27.946;2023-05-14T01:47:48;101573.41;;;15.71;60.06
38022;BME280;23832;43.216;27.946;2023-05-14T01:49:52;101573.59;;;15.69;59.76
38022;BME280;23832;43.216;27.946;2023-05-14T01:51:54;101573.56;;;15.54;59.91
38022;BME280;23832;43.216;27.946;2023-05-14T01:53:56;101571.91;;;15.53;59.83
38022;BME280;23832;43.216;27.946;2023-05-14T01:56:00;101576.50;;;15.59;59.44
38022;BME280;23832;43.216;27.946;2023-05-14T01:58:02;101563.75;;;15.40;59.45
38022;BME280;23832;43.216;27.946;2023-05-14T02:00:05;101571.47;;;15.50;59.40
38022;BME280;23832;43.216;27.946;2023-05-14T02:02:08;101573.50;;;15.63;59.34
38022;BME280;23832;43.216;27.946;2023-05-14T02:04:10;101564.22;;;15.29;59.77
38022;BME280;23832;43.216;27.946;2023-05-14T02:06:13;101566.84;;;15.14;59.78
38022;BME280;23832;43.216;27.946;2023-05-14T02:08:15;101574.34;;;15.25;59.53
38022;BME280;23832;43.216;27.946;2023-05-14T02:10:17;101569.81;;;15.49;58.78
38022;BME280;23832;43.216;27.946;2023-05-14T02:12:20;101580.66;;;15.62;58.63
38022;BME280;23832;43.216;27.946;2023-05-14T02:14:22;101577.34;;;15.60;58.33
38022;BME280;23832;43.216;27.946;2023-05-14T02:16:24;101581.00;;;15.59;58.55
38022;BME280;23832;43.216;27.946;2023-05-14T02:18:26;101579.63;;;15.48;58.78
38022;BME280;23832;43.216;27.946;2023-05-14T02:20:28;101573.38;;;15.41;59.20
38022;BME280;23832;43.216;27.946;2023-05-14T02:22:30;101578.50;;;15.43;59.20
38022;BME280;23832;43.216;27.946;2023-05-14T02:24:32;101577.16;;;15.47;58.98
38022;BME280;23832;43.216;27.946;2023-05-14T02:26:33;101580.06;;;15.52;58.83
38022;BME280;23832;43.216;27.946;2023-05-14T02:28:37;101582.00;;;15.58;58.32
38022;BME280;23832;43.216;27.946;2023-05-14T02:30:38;101574.41;;;15.55;58.37
38022;BME280;23832;43.216;27.946;2023-05-14T02:32:40;101580.59;;;15.32;58.68
38022;BME280;23832;43.216;27.946;2023-05-14T02:34:42;101577.16;;;15.47;58.78
38022;BME280;23832;43.216;27.946;2023-05-14T02:36:44;101574.31;;;15.48;58.76
38022;BME280;23832;43.216;27.946;2023-05-14T02:38:46;101583.75;;;15.51;58.75
38022;BME280;23832;43.216;27.946;2023-05-14T02:40:47;101578.06;;;15.54;58.88
38022;BME280;23832;43.216;27.946;2023-05-14T02:42:50;101590.38;;;15.70;58.21
38022;BME280;23832;43.216;27.946;2023-05-14T02:44:54;101585.97;;;15.62;57.92
38022;BME280;23832;43.216;27.946;2023-05-14T02:46:55;101588.97;;;15.59;58.42
38022;BME280;23832;43.216;27.946;2023-05-14T02:49:00;101594.97;;;15.61;58.26
38022;BME280;23832;43.216;27.946;2023-05-14T02:51:02;101592.00;;;15.56;58.30
38022;BME280;23832;43.216;27.946;2023-05-14T02:53:04;101594.09;;;15.46;58.42
38022;BME280;23832;43.216;27.946;2023-05-14T02:55:07;101587.38;;;15.35;58.30
38022;BME280;23832;43.216;27.946;2023-05-14T02:57:10;101592.63;;;15.28;59.18
38022;BME280;23832;43.216;27.946;2023-05-14T02:59:12;101596.53;;;15.32;59.18
38022;BME280;23832;43.216;27.946;2023-05-14T03:01:17;101588.28;;;15.27;59.27
38022;BME280;23832;43.216;27.946;2023-05-14T03:03:19;101593.09;;;15.09;60.07
38022;BME280;23832;43.216;27.946;2023-05-14T03:05:22;101584.47;;;14.92;60.79
38022;BME280;23832;43.216;27.946;2023-05-14T03:07:24;101582.97;;;14.90;61.01
38022;BME280;23832;43.216;27.946;2023-05-14T03:09:26;101596.56;;;15.10;61.04
38022;BME280;23832;43.216;27.946;2023-05-14T03:11:28;101594.25;;;15.29;62.03
38022;BME280;23832;43.216;27.946;2023-05-14T03:13:30;101595.53;;;14.96;65.04
38022;BME280;23832;43.216;27.946;2023-05-14T03:15:33;101599.66;;;15.36;66.45
38022;BME280;23832;43.216;27.946;2023-05-14T03:17:37;101609.13;;;15.53;67.09
38022;BME280;23832;43.216;27.946;2023-05-14T03:19:38;101608.97;;;15.55;69.35
38022;BME280;23832;43.216;27.946;2023-05-14T03:21:40;101610.09;;;15.75;68.72
38022;BME280;23832;43.216;27.946;2023-05-14T03:23:42;101608.34;;;15.97;66.13
38022;BME280;23832;43.216;27.946;2023-05-14T03:25:44;101611.47;;;16.01;64.60
38022;BME280;23832;43.216;27.946;2023-05-14T03:27:46;101611.56;;;15.93;63.21
38022;BME280;23832;43.216;27.946;2023-05-14T03:29:48;101618.81;;;15.84;62.38
38022;BME280;23832;43.216;27.946;2023-05-14T03:31:50;101616.78;;;15.86;61.35
38022;BME280;23832;43.216;27.946;2023-05-14T03:33:56;101612.84;;;15.67;61.00
38022;BME280;23832;43.216;27.946;2023-05-14T03:35:58;101612.47;;;15.70;60.19
38022;BME280;23832;43.216;27.946;2023-05-14T03:38:00;101619.16;;;15.96;59.63
38022;BME280;23832;43.216;27.946;2023-05-14T03:40:02;101613.28;;;16.15;58.72
38022;BME280;23832;43.216;27.946;2023-05-14T03:42:04;101619.50;;;16.22;57.76
38022;BME280;23832;43.216;27.946;2023-05-14T03:44:06;101627.84;;;16.34;57.29
38022;BME280;23832;43.216;27.946;2023-05-14T03:46:08;101632.94;;;16.50;57.24
38022;BME280;23832;43.216;27.946;2023-05-14T03:48:10;101626.50;;;16.59;56.90
38022;BME280;23832;43.216;27.946;2023-05-14T03:50:14;101618.59;;;16.66;56.43
38022;BME280;23832;43.216;27.946;2023-05-14T03:52:16;101620.13;;;16.75;56.32
38022;BME280;23832;43.216;27.946;2023-05-14T03:54:18;101599.47;;;16.77;56.04
38022;BME280;23832;43.216;27.946;2023-05-14T03:56:20;101604.91;;;16.69;56.14
38022;BME280;23832;43.216;27.946;2023-05-14T03:58:22;101617.22;;;16.70;56.11
38022;BME280;23832;43.216;27.946;2023-05-14T04:00:27;101622.38;;;16.93;55.92
38022;BME280;23832;43.216;27.946;2023-05-14T04:02:29;101614.41;;;17.21;55.28
38022;BME280;23832;43.216;27.946;2023-05-14T04:04:31;101624.56;;;17.11;55.90
38022;BME280;23832;43.216;27.946;2023-05-14T04:06:34;101625.81;;;17.36;55.55
38022;BME280;23832;43.216;27.946;2023-05-14T04:08:36;101625.53;;;17.52;55.75
38022;BME280;23832;43.216;27.946;2023-05-14T04:10:38;101568.16;;;17.28;56.15
38022;BME280;23832;43.216;27.946;2023-05-14T04:12:39;101630.06;;;17.86;56.07
38022;BME280;23832;43.216;27.946;2023-05-14T04:14:42;101631.03;;;18.13;55.21
38022;BME280;23832;43.216;27.946;2023-05-14T04:16:44;101631.72;;;18.29;55.38
38022;BME280;23832;43.216;27.946;2023-05-14T04:18:45;101640.13;;;18.26;55.93
38022;BME280;23832;43.216;27.946;2023-05-14T04:20:47;101635.84;;;18.38;56.63
38022;BME280;23832;43.216;27.946;2023-05-14T04:22:50;101633.19;;;18.38;56.75
38022;BME280;23832;43.216;27.946;2023-05-14T04:24:52;101632.41;;;18.44;57.69
38022;BME280;23832;43.216;27.946;2023-05-14T04:26:56;101630.56;;;18.58;58.43
38022;BME280;23832;43.216;27.946;2023-05-14T04:29:01;101631.00;;;18.61;59.30
38022;BME280;23832;43.216;27.946;2023-05-14T04:31:03;101631.00;;;18.61;60.07
38022;BME280;23832;43.216;27.946;2023-05-14T04:33:05;101621.81;;;18.84;61.15
38022;BME280;23832;43.216;27.946;2023-05-14T04:35:07;101626.38;;;19.29;60.53
38022;BME280;23832;43.216;27.946;2023-05-14T04:37:09;101625.75;;;19.41;61.09
38022;BME280;23832;43.216;27.946;2023-05-14T04:39:13;101624.09;;;19.66;61.17
38022;BME280;23832;43.216;27.946;2023-05-14T04:41:14;101623.88;;;19.88;61.13
38022;BME280;23832;43.216;27.946;2023-05-14T04:43:16;101637.34;;;20.19;61.16
38022;BME280;23832;43.216;27.946;2023-05-14T04:45:18;101635.00;;;19.78;62.38
38022;BME280;23832;43.216;27.946;2023-05-14T04:47:26;101627.94;;;19.97;63.34
38022;BME280;23832;43.216;27.946;2023-05-14T04:49:28;101631.53;;;20.29;62.15
38022;BME280;23832;43.216;27.946;2023-05-14T04:51:30;101634.53;;;19.94;65.97
38022;BME280;23832;43.216;27.946;2023-05-14T04:53:32;101635.72;;;20.11;66.75
38022;BME280;23832;43.216;27.946;2023-05-14T04:55:35;101637.59;;;20.56;64.01
38022;BME280;23832;43.216;27.946;2023-05-14T04:57:37;101640.16;;;20.76;63.14
38022;BME280;23832;43.216;27.946;2023-05-14T04:59:42;101639.44;;;20.62;63.66
38022;BME280;23832;43.216;27.946;2023-05-14T05:01:44;101630.94;;;20.65;65.45
38022;BME280;23832;43.216;27.946;2023-05-14T05:03:49;101631.59;;;20.67;65.76
38022;BME280;23832;43.216;27.946;2023-05-14T05:05:50;101636.00;;;20.41;68.63
38022;BME280;23832;43.216;27.946;2023-05-14T05:07:54;101623.97;;;20.64;67.26
38022;BME280;23832;43.216;27.946;2023-05-14T05:09:56;101625.47;;;20.53;68.08
38022;BME280;23832;43.216;27.946;2023-05-14T05:11:59;101631.47;;;21.12;65.28
38022;BME280;23832;43.216;27.946;2023-05-14T05:14:01;101629.47;;;21.32;64.79
38022;BME280;23832;43.216;27.946;2023-05-14T05:16:03;101634.72;;;21.45;63.62
38022;BME280;23832;43.216;27.946;2023-05-14T05:18:05;101635.94;;;21.49;64.03
38022;BME280;23832;43.216;27.946;2023-05-14T05:20:07;101640.00;;;21.77;62.46
38022;BME280;23832;43.216;27.946;2023-05-14T05:22:10;101643.81;;;21.44;64.12
38022;BME280;23832;43.216;27.946;2023-05-14T05:24:12;101631.09;;;21.58;63.40
38022;BME280;23832;43.216;27.946;2023-05-14T05:26:14;101641.00;;;20.76;68.12
38022;BME280;23832;43.216;27.946;2023-05-14T05:28:20;101628.25;;;21.53;65.53
38022;BME280;23832;43.216;27.946;2023-05-14T05:30:22;101639.34;;;21.07;68.54
38022;BME280;23832;43.216;27.946;2023-05-14T05:32:24;101642.28;;;21.30;69.36
38022;BME280;23832;43.216;27.946;2023-05-14T05:34:26;101637.84;;;21.11;70.26
38022;BME280;23832;43.216;27.946;2023-05-14T05:36:28;101631.34;;;21.32;69.16
38022;BME280;23832;43.216;27.946;2023-05-14T05:38:31;101629.84;;;21.36;68.96
38022;BME280;23832;43.216;27.946;2023-05-14T05:40:32;101633.06;;;21.44;69.63
38022;BME280;23832;43.216;27.946;2023-05-14T05:42:34;101634.25;;;21.30;70.66
38022;BME280;23832;43.216;27.946;2023-05-14T05:44:38;101627.91;;;21.86;67.03
38022;BME280;23832;43.216;27.946;2023-05-14T05:46:39;101627.56;;;22.49;62.66
38022;BME280;23832;43.216;27.946;2023-05-14T05:48:44;101621.53;;;21.62;64.77
38022;BME280;23832;43.216;27.946;2023-05-14T05:50:47;101633.84;;;21.70;65.54
38022;BME280;23832;43.216;27.946;2023-05-14T05:52:50;101633.69;;;22.01;66.08
38022;BME280;23832;43.216;27.946;2023-05-14T05:54:52;101638.13;;;22.32;64.80
38022;BME280;23832;43.216;27.946;2023-05-14T05:56:54;101635.66;;;22.61;63.49
38022;BME280;23832;43.216;27.946;2023-05-14T05:58:56;101637.94;;;22.76;62.09
38022;BME280;23832;43.216;27.946;2023-05-14T06:01:12;101638.75;;;22.76;62.61
38022;BME280;23832;43.216;27.946;2023-05-14T06:03:14;101632.78;;;22.92;61.26
38022;BME280;23832;43.216;27.946;2023-05-14T06:05:15;101627.19;;;22.76;62.56
38022;BME280;23832;43.216;27.946;2023-05-14T06:07:19;101629.19;;;23.34;58.17
38022;BME280;23832;43.216;27.946;2023-05-14T06:09:21;101631.63;;;22.82;59.28
38022;BME280;23832;43.216;27.946;2023-05-14T06:11:23;101634.25;;;22.10;62.00
38022;BME280;23832;43.216;27.946;2023-05-14T06:13:25;101643.19;;;21.67;67.10
38022;BME280;23832;43.216;27.946;2023-05-14T06:15:28;101650.34;;;22.47;64.02
38022;BME280;23832;43.216;27.946;2023-05-14T06:17:32;101646.97;;;22.51;63.81
38022;BME280;23832;43.216;27.946;2023-05-14T06:19:33;101656.44;;;22.84;61.45
38022;BME280;23832;43.216;27.946;2023-05-14T06:21:36;101651.44;;;22.87;60.68
38022;BME280;23832;43.216;27.946;2023-05-14T06:23:38;101655.50;;;23.32;61.20
38022;BME280;23832;43.216;27.946;2023-05-14T06:25:40;101657.06;;;22.86;61.38
38022;BME280;23832;43.216;27.946;2023-05-14T06:27:42;101653.25;;;23.05;61.60
38022;BME280;23832;43.216;27.946;2023-05-14T06:29:44;101654.00;;;23.47;60.75
38022;BME280;23832;43.216;27.946;2023-05-14T06:31:46;101649.19;;;23.38;60.19
38022;BME280;23832;43.216;27.946;2023-05-14T06:33:50;101649.53;;;23.30;59.57
38022;BME280;23832;43.216;27.946;2023-05-14T06:35:53;101642.31;;;23.65;58.45
38022;BME280;23832;43.216;27.946;2023-05-14T06:37:54;101643.44;;;23.22;60.71
38022;BME280;23832;43.216;27.946;2023-05-14T06:39:56;101648.72;;;23.41;59.30
38022;BME280;23832;43.216;27.946;2023-05-14T06:41:58;101650.47;;;23.94;57.97
38022;BME280;23832;43.216;27.946;2023-05-14T06:44:00;101659.00;;;23.44;60.34
38022;BME280;23832;43.216;27.946;2023-05-14T06:46:02;101656.28;;;24.14;57.46
38022;BME280;23832;43.216;27.946;2023-05-14T06:48:03;101661.66;;;24.14;58.47
38022;BME280;23832;43.216;27.946;2023-05-14T06:50:07;101661.16;;;23.77;59.82
38022;BME280;23832;43.216;27.946;2023-05-14T06:52:09;101659.13;;;23.96;59.20
38022;BME280;23832;43.216;27.946;2023-05-14T06:54:11;101661.25;;;24.46;55.29
38022;BME280;23832;43.216;27.946;2023-05-14T06:56:13;101661.59;;;23.97;54.32
38022;BME280;23832;43.216;27.946;2023-05-14T06:58:15;101659.47;;;24.97;52.05
38022;BME280;23832;43.216;27.946;2023-05-14T07:00:19;101659.97;;;25.61;51.95
38022;BME280;23832;43.216;27.946;2023-05-14T07:02:22;101667.47;;;25.20;52.44
38022;BME280;23832;43.216;27.946;2023-05-14T07:04:24;101668.16;;;25.66;51.26
38022;BME280;23832;43.216;27.946;2023-05-14T07:06:28;101672.69;;;25.27;49.79
38022;BME280;23832;43.216;27.946;2023-05-14T07:08:31;101654.53;;;25.39;45.97
38022;BME280;23832;43.216;27.946;2023-05-14T07:10:34;101657.72;;;25.53;44.30
38022;BME280;23832;43.216;27.946;2023-05-14T07:12:37;101657.88;;;25.63;43.12
38022;BME280;23832;43.216;27.946;2023-05-14T07:14:39;101661.56;;;25.95;44.44
38022;BME280;23832;43.216;27.946;2023-05-14T07:16:41;101659.19;;;25.99;43.77
38022;BME280;23832;43.216;27.946;2023-05-14T07:18:43;101663.38;;;26.55;41.10
38022;BME280;23832;43.216;27.946;2023-05-14T07:20:45;101667.81;;;26.94;42.70
38022;BME280;23832;43.216;27.946;2023-05-14T07:22:48;101669.25;;;26.47;44.86
38022;BME280;23832;43.216;27.946;2023-05-14T07:24:50;101678.00;;;26.59;42.71
38022;BME280;23832;43.216;27.946;2023-05-14T07:26:52;101678.97;;;26.70;44.05
38022;BME280;23832;43.216;27.946;2023-05-14T07:28:56;101673.19;;;27.15;43.12
38022;BME280;23832;43.216;27.946;2023-05-14T07:30:58;101684.50;;;27.44;44.40
38022;BME280;23832;43.216;27.946;2023-05-14T07:33:05;101686.44;;;27.91;43.75
38022;BME280;23832;43.216;27.946;2023-05-14T07:35:09;101692.50;;;27.66;43.08
38022;BME280;23832;43.216;27.946;2023-05-14T07:37:12;101688.38;;;28.01;43.48
38022;BME280;23832;43.216;27.946;2023-05-14T07:39:18;101696.72;;;28.52;40.82
38022;BME280;23832;43.216;27.946;2023-05-14T07:41:20;101688.72;;;28.15;40.77
38022;BME280;23832;43.216;27.946;2023-05-14T07:43:22;101681.69;;;27.66;42.18
38022;BME280;23832;43.216;27.946;2023-05-14T07:45:23;101683.19;;;27.94;42.52
38022;BME280;23832;43.216;27.946;2023-05-14T07:47:25;101680.69;;;27.83;40.84
38022;BME280;23832;43.216;27.946;2023-05-14T07:49:27;101675.31;;;27.93;39.71
38022;BME280;23832;43.216;27.946;2023-05-14T07:51:29;101670.16;;;27.49;40.39
38022;BME280;23832;43.216;27.946;2023-05-14T07:53:32;101680.22;;;27.96;38.73
38022;BME280;23832;43.216;27.946;2023-05-14T07:55:35;101681.63;;;28.09;38.07
38022;BME280;23832;43.216;27.946;2023-05-14T07:57:37;101680.28;;;28.11;38.14
38022;BME280;23832;43.216;27.946;2023-05-14T07:59:39;101693.47;;;27.92;36.96
38022;BME280;23832;43.216;27.946;2023-05-14T08:01:42;101687.88;;;28.09;37.23
38022;BME280;23832;43.216;27.946;2023-05-14T08:03:44;101693.31;;;29.13;34.24
38022;BME280;23832;43.216;27.946;2023-05-14T08:05:46;101692.47;;;28.92;35.03
38022;BME280;23832;43.216;27.946;2023-05-14T08:07:48;101707.19;;;28.28;36.89
38022;BME280;23832;43.216;27.946;2023-05-14T08:09:50;101695.38;;;29.97;36.25
38022;BME280;23832;43.216;27.946;2023-05-14T08:11:56;101698.25;;;30.31;37.44
38022;BME280;23832;43.216;27.946;2023-05-14T08:13:58;101700.03;;;28.74;38.32
38022;BME280;23832;43.216;27.946;2023-05-14T08:16:00;101697.41;;;29.15;36.67
38022;BME280;23832;43.216;27.946;2023-05-14T08:18:02;101699.28;;;29.40;36.17
38022;BME280;23832;43.216;27.946;2023-05-14T08:20:05;101700.91;;;29.66;36.83
38022;BME280;23832;43.216;27.946;2023-05-14T08:22:09;101702.31;;;29.49;36.59
38022;BME280;23832;43.216;27.946;2023-05-14T08:24:11;101695.69;;;29.85;35.69
38022;BME280;23832;43.216;27.946;2023-05-14T08:26:13;101699.28;;;29.35;37.16
38022;BME280;23832;43.216;27.946;2023-05-14T08:28:17;101690.28;;;29.65;37.76
38022;BME280;23832;43.216;27.946;2023-05-14T08:30:19;101685.97;;;29.28;37.41
38022;BME280;23832;43.216;27.946;2023-05-14T08:32:21;101681.63;;;28.97;36.63
38022;BME280;23832;43.216;27.946;2023-05-14T08:34:23;101675.81;;;28.47;34.70
38022;BME280;23832;43.216;27.946;2023-05-14T08:36:27;101672.09;;;28.79;33.43
38022;BME280;23832;43.216;27.946;2023-05-14T08:38:29;101671.28;;;28.68;33.45
38022;BME280;23832;43.216;27.946;2023-05-14T08:40:31;101672.66;;;28.03;34.33
38022;BME280;23832;43.216;27.946;2023-05-14T08:42:33;101667.81;;;28.05;34.46
38022;BME280;23832;43.216;27.946;2023-05-14T08:44:37;101655.25;;;27.94;34.45
38022;BME280;23832;43.216;27.946;2023-05-14T08:46:39;101649.50;;;28.48;32.18
38022;BME280;23832;43.216;27.946;2023-05-14T08:48:41;101651.13;;;28.39;31.48
38022;BME280;23832;43.216;27.946;2023-05-14T08:50:43;101650.75;;;28.20;31.33
38022;BME280;23832;43.216;27.946;2023-05-14T08:52:45;101651.03;;;27.61;32.63
38022;BME280;23832;43.216;27.946;2023-05-14T08:54:47;101642.16;;;27.70;36.61
38022;BME280;23832;43.216;27.946;2023-05-14T08:56:51;101644.50;;;27.20;36.44
38022;BME280;23832;43.216;27.946;2023-05-14T08:58:53;101645.44;;;27.03;35.06
38022;BME280;23832;43.216;27.946;2023-05-14T09:00:57;101644.97;;;27.91;32.04
38022;BME280;23832;43.216;27.946;2023-05-14T09:02:59;101647.38;;;27.82;32.48
38022;BME280;23832;43.216;27.946;2023-05-14T09:05:01;101650.47;;;28.11;32.57
38022;BME280;23832;43.216;27.946;2023-05-14T09:07:03;101654.19;;;29.39;32.18
38022;BME280;23832;43.216;27.946;2023-05-14T09:09:06;101661.00;;;29.11;32.90
38022;BME280;23832;43.216;27.946;2023-05-14T09:11:09;101651.22;;;29.10;31.48
38022;BME280;23832;43.216;27.946;2023-05-14T09:13:11;101649.63;;;29.04;30.57
38022;BME280;23832;43.216;27.946;2023-05-14T09:15:12;101652.44;;;29.94;30.07
38022;BME280;23832;43.216;27.946;2023-05-14T09:17:16;101652.38;;;30.14;29.60
38022;BME280;23832;43.216;27.946;2023-05-14T09:19:19;101658.28;;;29.26;30.29
38022;BME280;23832;43.216;27.946;2023-05-14T09:21:21;101652.72;;;28.30;32.65
38022;BME280;23832;43.216;27.946;2023-05-14T09:23:24;101653.75;;;28.13;34.40
38022;BME280;23832;43.216;27.946;2023-05-14T09:25:26;101652.38;;;28.16;33.76
38022;BME280;23832;43.216;27.946;2023-05-14T09:27:28;101650.19;;;28.08;34.54
38022;BME280;23832;43.216;27.946;2023-05-14T09:29:43;101642.66;;;27.67;34.88
38022;BME280;23832;43.216;27.946;2023-05-14T09:31:46;101644.72;;;27.13;35.93
38022;BME280;23832;43.216;27.946;2023-05-14T09:36:14;101651.56;;;26.62;40.86
38022;BME280;23832;43.216;27.946;2023-05-14T09:38:17;101648.88;;;26.40;43.19
38022;BME280;23832;43.216;27.946;2023-05-14T09:40:20;101639.16;;;26.17;43.59
38022;BME280;23832;43.216;27.946;2023-05-14T09:42:22;101658.44;;;26.47;43.80
38022;BME280;23832;43.216;27.946;2023-05-14T09:44:24;101668.25;;;26.53;45.12
38022;BME280;23832;43.216;27.946;2023-05-14T09:46:26;101668.53;;;26.35;45.72
38022;BME280;23832;43.216;27.946;2023-05-14T09:48:30;101669.31;;;26.52;45.15
38022;BME280;23832;43.216;27.946;2023-05-14T09:50:32;101672.22;;;26.73;45.37
38022;BME280;23832;43.216;27.946;2023-05-14T09:52:44;101681.78;;;26.15;45.35
38022;BME280;23832;43.216;27.946;2023-05-14T09:54:47;101688.09;;;26.20;45.42
38022;BME280;23832;43.216;27.946;2023-05-14T09:56:49;101675.47;;;26.48;45.39
38022;BME280;23832;43.216;27.946;2023-05-14T09:58:51;101669.41;;;25.75;46.83
38022;BME280;23832;43.216;27.946;2023-05-14T10:00:56;101670.00;;;25.43;47.02
38022;BME280;23832;43.216;27.946;2023-05-14T10:02:58;101675.56;;;25.54;46.84
38022;BME280;23832;43.216;27.946;2023-05-14T10:05:00;101669.63;;;25.90;45.57
38022;BME280;23832;43.216;27.946;2023-05-14T10:07:03;101675.72;;;25.30;47.73
38022;BME280;23832;43.216;27.946;2023-05-14T10:09:07;101674.59;;;24.98;48.71
38022;BME280;23832;43.216;27.946;2023-05-14T10:11:12;101672.03;;;23.47;51.94
38022;BME280;23832;43.216;27.946;2023-05-14T10:13:18;101664.09;;;23.75;53.79
38022;BME280;23832;43.216;27.946;2023-05-14T10:15:22;101661.66;;;24.14;53.18
38022;BME280;23832;43.216;27.946;2023-05-14T10:17:25;101661.84;;;24.48;51.70
38022;BME280;23832;43.216;27.946;2023-05-14T10:19:31;101662.22;;;24.40;50.92
38022;BME280;23832;43.216;27.946;2023-05-14T10:21:34;101675.19;;;24.43;50.86
38022;BME280;23832;43.216;27.946;2023-05-14T10:23:36;101676.75;;;24.67;50.24
38022;BME280;23832;43.216;27.946;2023-05-14T10:25:43;101670.75;;;23.85;54.16
38022;BME280;23832;43.216;27.946;2023-05-14T10:27:46;101668.38;;;23.88;53.92
38022;BME280;23832;43.216;27.946;2023-05-14T10:29:50;101669.56;;;23.92;54.83
38022;BME280;23832;43.216;27.946;2023-05-14T10:31:53;101660.00;;;23.73;55.71
38022;BME280;23832;43.216;27.946;2023-05-14T10:33:55;101657.81;;;23.16;58.63
38022;BME280;23832;43.216;27.946;2023-05-14T10:35:59;101653.03;;;23.54;58.76